sensor_id;sensor_type;location;lat;lon;timestamp;pressure;altitude;pressure_sealevel;temperature;humidity
13612;BME280;6877;51.436;6.774;2022-09-17T00:01:38;100877.88;;;9.33;93.63
13612;BME280;6877;51.436;6.774;2022-09-17T00:04:05;100883.06;;;9.35;94.27
13612;BME280;6877;51.436;6.774;2022-09-17T00:06:34;100875.22;;;9.36;94.04
13612;BME280;6877;51.436;6.774;2022-09-17T00:09:06;100889.09;;;9.41;94.43
13612;BME280;6877;51.436;6.774;2022-09-17T00:11:36;100893.41;;;9.42;93.92
13612;BME280;6877;51.436;6.774;2022-09-17T00:14:05;100889.09;;;9.41;93.70
13612;BME280;6877;51.436;6.774;2022-09-17T00:16:35;100896.06;;;9.39;94.37
13612;BME280;6877;51.436;6.774;2022-09-17T00:19:03;100897.78;;;9.42;93.97
13612;BME280;6877;51.436;6.774;2022-09-17T00:21:31;100896.97;;;9.40;93.92
13612;BME280;6877;51.436;6.774;2022-09-17T00:24:00;100897.00;;;9.37;94.70
13612;BME280;6877;51.436;6.774;2022-09-17T00:26:28;100896.13;;;9.35;94.95
13612;BME280;6877;51.436;6.774;2022-09-17T00:29:00;100894.41;;;9.34;95.62
13612;BME280;6877;51.436;6.774;2022-09-17T00:31:33;100890.88;;;9.38;95.38
13612;BME280;6877;51.436;6.774;2022-09-17T00:34:05;100885.63;;;9.39;96.19
13612;BME280;6877;51.436;6.774;2022-09-17T00:36:36;100878.63;;;9.41;96.07
13612;BME280;6877;51.436;6.774;2022-09-17T00:39:09;100878.69;;;9.38;96.23
13612;BME280;6877;51.436;6.774;2022-09-17T00:41:36;100882.19;;;9.37;96.51
13612;BME280;6877;51.436;6.774;2022-09-17T00:47:18;100888.34;;;9.33;96.76
13612;BME280;6877;51.436;6.774;2022-09-17T00:50:07;100889.16;;;9.35;96.87
13612;BME280;6877;51.436;6.774;2022-09-17T00:52:40;100893.56;;;9.33;96.33
13612;BME280;6877;51.436;6.774;2022-09-17T00:55:23;100893.56;;;9.32;96.28
13612;BME280;6877;51.436;6.774;2022-09-17T00:57:58;100891.84;;;9.31;96.53
13612;BME280;6877;51.436;6.774;2022-09-17T01:00:31;100894.44;;;9.29;96.88
13612;BME280;6877;51.436;6.774;2022-09-17T01:02:59;100895.28;;;9.33;96.76
13612;BME280;6877;51.436;6.774;2022-09-17T01:05:41;100899.63;;;9.32;96.50
13612;BME280;6877;51.436;6.774;2022-09-17T01:08:44;100904.03;;;9.30;96.11
13612;BME280;6877;51.436;6.774;2022-09-17T01:17:37;100908.63;;;9.07;96.38
13612;BME280;6877;51.436;6.774;2022-09-17T01:32:12;100907.06;;;8.87;97.77
13612;BME280;6877;51.436;6.774;2022-09-17T01:40:06;100911.34;;;8.96;97.52
13612;BME280;6877;51.436;6.774;2022-09-17T01:42:47;100905.25;;;8.95;97.57
13612;BME280;6877;51.436;6.774;2022-09-17T01:45:43;100912.19;;;8.96;97.33
13612;BME280;6877;51.436;6.774;2022-09-17T01:48:20;100913.09;;;8.95;97.37
13612;BME280;6877;51.436;6.774;2022-09-17T01:51:06;100907.75;;;9.04;97.26
13612;BME280;6877;51.436;6.774;2022-09-17T01:53:43;100915.56;;;9.08;97.31
13612;BME280;6877;51.436;6.774;2022-09-17T01:56:20;100907.69;;;9.12;97.16
13612;BME280;6877;51.436;6.774;2022-09-17T01:59:29;100909.38;;;9.18;96.80
13612;BME280;6877;51.436;6.774;2022-09-17T02:02:35;100916.28;;;9.22;96.41
13612;BME280;6877;51.436;6.774;2022-09-17T02:05:22;100917.16;;;9.22;96.39
13612;BME280;6877;51.436;6.774;2022-09-17T02:08:05;100923.28;;;9.18;96.48
13612;BME280;6877;51.436;6.774;2022-09-17T02:10:38;100928.53;;;9.15;96.67
13612;BME280;6877;51.436;6.774;2022-09-17T02:13:16;100925.91;;;9.17;96.73
13612;BME280;6877;51.436;6.774;2022-09-17T02:15:55;100923.28;;;9.18;96.75
13612;BME280;6877;51.436;6.774;2022-09-17T02:18:35;100923.22;;;9.23;96.50
13612;BME280;6877;51.436;6.774;2022-09-17T02:21:15;100922.34;;;9.27;95.79
13612;BME280;6877;51.436;6.774;2022-09-17T02:26:31;100917.09;;;9.30;95.86
13612;BME280;6877;51.436;6.774;2022-09-17T02:29:10;100909.25;;;9.30;95.88
13612;BME280;6877;51.436;6.774;2022-09-17T02:31:44;100912.72;;;9.31;95.79
13612;BME280;6877;51.436;6.774;2022-09-17T02:34:15;100924.88;;;9.35;95.99
13612;BME280;6877;51.436;6.774;2022-09-17T02:36:48;100929.19;;;9.36;95.37
13612;BME280;6877;51.436;6.774;2022-09-17T02:39:19;100929.19;;;9.37;94.97
13612;BME280;6877;51.436;6.774;2022-09-17T02:56:22;100932.13;;;9.05;95.28
13612;BME280;6877;51.436;6.774;2022-09-17T03:01:32;100938.97;;;9.17;94.71
13612;BME280;6877;51.436;6.774;2022-09-17T03:04:08;100945.00;;;9.22;94.39
13612;BME280;6877;51.436;6.774;2022-09-17T03:06:42;100938.88;;;9.27;93.85
13612;BME280;6877;51.436;6.774;2022-09-17T03:09:15;100932.75;;;9.30;94.17
13612;BME280;6877;51.436;6.774;2022-09-17T03:11:46;100930.97;;;9.32;93.64
13612;BME280;6877;51.436;6.774;2022-09-17T03:14:18;100938.78;;;9.37;93.17
13612;BME280;6877;51.436;6.774;2022-09-17T03:16:50;100942.22;;;9.39;93.18
13612;BME280;6877;51.436;6.774;2022-09-17T03:19:22;100939.56;;;9.43;92.78
13612;BME280;6877;51.436;6.774;2022-09-17T03:21:48;100941.25;;;9.49;92.53
13612;BME280;6877;51.436;6.774;2022-09-17T03:24:20;100935.09;;;9.55;91.86
13612;BME280;6877;51.436;6.774;2022-09-17T03:26:51;100939.41;;;9.59;91.57
13612;BME280;6877;51.436;6.774;2022-09-17T03:29:23;100935.00;;;9.62;91.17
13612;BME280;6877;51.436;6.774;2022-09-17T03:31:49;100932.31;;;9.67;90.91
13612;BME280;6877;51.436;6.774;2022-09-17T03:34:20;100941.00;;;9.70;90.27
13612;BME280;6877;51.436;6.774;2022-09-17T03:36:52;100941.88;;;9.69;90.27
13612;BME280;6877;51.436;6.774;2022-09-17T03:39:23;100935.78;;;9.72;90.13
13612;BME280;6877;51.436;6.774;2022-09-17T03:41:55;100934.88;;;9.73;90.21
13612;BME280;6877;51.436;6.774;2022-09-17T03:44:26;100932.25;;;9.73;90.21
13612;BME280;6877;51.436;6.774;2022-09-17T03:46:58;100930.50;;;9.75;90.23
13612;BME280;6877;51.436;6.774;2022-09-17T03:49:32;100939.16;;;9.77;90.34
13612;BME280;6877;51.436;6.774;2022-09-17T03:52:03;100940.97;;;9.73;90.56
13612;BME280;6877;51.436;6.774;2022-09-17T03:54:30;100945.31;;;9.74;90.56
13612;BME280;6877;51.436;6.774;2022-09-17T03:57:01;100945.34;;;9.71;90.52
13612;BME280;6877;51.436;6.774;2022-09-17T03:59:33;100957.59;;;9.68;90.70
13612;BME280;6877;51.436;6.774;2022-09-17T04:02:04;100950.69;;;9.62;90.93
13612;BME280;6877;51.436;6.774;2022-09-17T04:04:36;100956.81;;;9.60;91.34
13612;BME280;6877;51.436;6.774;2022-09-17T04:07:08;100962.91;;;9.60;91.20
13612;BME280;6877;51.436;6.774;2022-09-17T04:09:39;100959.50;;;9.54;91.45
13612;BME280;6877;51.436;6.774;2022-09-17T04:12:11;100960.38;;;9.52;92.05
13612;BME280;6877;51.436;6.774;2022-09-17T04:14:42;100946.38;;;9.57;91.83
13612;BME280;6877;51.436;6.774;2022-09-17T04:17:13;100941.13;;;9.60;91.49
13612;BME280;6877;51.436;6.774;2022-09-17T04:19:48;100948.13;;;9.59;91.87
13612;BME280;6877;51.436;6.774;2022-09-17T04:22:20;100960.38;;;9.52;92.40
13612;BME280;6877;51.436;6.774;2022-09-17T04:24:51;100964.78;;;9.47;92.96
13612;BME280;6877;51.436;6.774;2022-09-17T04:27:23;100959.59;;;9.44;92.78
13612;BME280;6877;51.436;6.774;2022-09-17T04:29:54;100975.25;;;9.46;92.74
13612;BME280;6877;51.436;6.774;2022-09-17T04:32:20;100974.34;;;9.48;92.68
13612;BME280;6877;51.436;6.774;2022-09-17T04:34:47;100969.09;;;9.48;92.83
13612;BME280;6877;51.436;6.774;2022-09-17T04:37:18;100972.66;;;9.44;93.18
13612;BME280;6877;51.436;6.774;2022-09-17T04:39:50;100956.97;;;9.44;93.35
13612;BME280;6877;51.436;6.774;2022-09-17T04:42:22;100951.78;;;9.41;93.47
13612;BME280;6877;51.436;6.774;2022-09-17T04:44:53;100954.38;;;9.41;93.75
13612;BME280;6877;51.436;6.774;2022-09-17T04:47:25;100957.03;;;9.38;93.25
13612;BME280;6877;51.436;6.774;2022-09-17T04:49:56;100964.91;;;9.35;93.71
13612;BME280;6877;51.436;6.774;2022-09-17T04:52:28;100955.41;;;9.28;93.78
13612;BME280;6877;51.436;6.774;2022-09-17T04:54:54;100962.41;;;9.23;94.04
13612;BME280;6877;51.436;6.774;2022-09-17T04:57:25;100965.97;;;9.16;94.35
13612;BME280;6877;51.436;6.774;2022-09-17T04:59:58;100969.53;;;9.04;94.63
13612;BME280;6877;51.436;6.774;2022-09-17T05:02:29;100975.66;;;8.98;95.21
13612;BME280;6877;51.436;6.774;2022-09-17T05:05:00;100979.22;;;8.93;95.57
13612;BME280;6877;51.436;6.774;2022-09-17T05:07:32;100985.31;;;8.92;95.82
13612;BME280;6877;51.436;6.774;2022-09-17T05:10:03;100987.06;;;8.88;95.32
13612;BME280;6877;51.436;6.774;2022-09-17T05:12:35;100981.06;;;8.80;95.47
13612;BME280;6877;51.436;6.774;2022-09-17T05:15:06;100986.31;;;8.75;95.90
13612;BME280;6877;51.436;6.774;2022-09-17T05:17:38;100991.50;;;8.78;95.85
13612;BME280;6877;51.436;6.774;2022-09-17T05:20:05;101001.97;;;8.75;96.09
13612;BME280;6877;51.436;6.774;2022-09-17T05:22:50;100998.50;;;8.76;96.03
13612;BME280;6877;51.436;6.774;2022-09-17T05:25:22;101004.53;;;8.78;95.98
13612;BME280;6877;51.436;6.774;2022-09-17T05:27:54;101010.59;;;8.87;95.76
13612;BME280;6877;51.436;6.774;2022-09-17T05:30:26;101020.97;;;8.94;95.14
13612;BME280;6877;51.436;6.774;2022-09-17T05:33:04;101020.03;;;9.01;94.85
13612;BME280;6877;51.436;6.774;2022-09-17T05:35:37;101014.75;;;9.08;94.54
13612;BME280;6877;51.436;6.774;2022-09-17T05:38:08;101009.50;;;9.11;94.15
13612;BME280;6877;51.436;6.774;2022-09-17T05:40:39;101016.47;;;9.15;93.73
13612;BME280;6877;51.436;6.774;2022-09-17T05:43:11;101006.00;;;9.16;93.30
13612;BME280;6877;51.436;6.774;2022-09-17T05:45:38;101012.06;;;9.17;92.65
13612;BME280;6877;51.436;6.774;2022-09-17T05:48:12;101003.34;;;9.19;93.21
13612;BME280;6877;51.436;6.774;2022-09-17T05:50:44;101001.59;;;9.20;93.08
13612;BME280;6877;51.436;6.774;2022-09-17T05:53:15;101021.63;;;9.21;93.30
13612;BME280;6877;51.436;6.774;2022-09-17T05:55:47;101007.66;;;9.23;93.51
13612;BME280;6877;51.436;6.774;2022-09-17T05:58:18;101014.59;;;9.29;93.25
13612;BME280;6877;51.436;6.774;2022-09-17T06:00:50;101008.50;;;9.28;92.52
13612;BME280;6877;51.436;6.774;2022-09-17T06:03:18;101017.19;;;9.31;92.71
13612;BME280;6877;51.436;6.774;2022-09-17T06:05:52;101027.63;;;9.29;92.82
13612;BME280;6877;51.436;6.774;2022-09-17T06:08:26;101029.44;;;9.24;92.61
13612;BME280;6877;51.436;6.774;2022-09-17T06:11:02;101033.81;;;9.22;92.85
13612;BME280;6877;51.436;6.774;2022-09-17T06:13:34;101035.56;;;9.17;92.77
13612;BME280;6877;51.436;6.774;2022-09-17T06:16:06;101039.97;;;9.13;92.90
13612;BME280;6877;51.436;6.774;2022-09-17T06:18:37;101042.63;;;9.09;93.24
13612;BME280;6877;51.436;6.774;2022-09-17T06:21:11;101049.59;;;9.07;93.33
13612;BME280;6877;51.436;6.774;2022-09-17T06:23:42;101047.84;;;9.09;93.55
13612;BME280;6877;51.436;6.774;2022-09-17T06:26:14;101048.69;;;9.12;93.48
13612;BME280;6877;51.436;6.774;2022-09-17T06:28:45;101060.81;;;9.18;93.34
13612;BME280;6877;51.436;6.774;2022-09-17T06:31:17;101055.59;;;9.18;93.16
13612;BME280;6877;51.436;6.774;2022-09-17T06:33:49;101055.59;;;9.16;93.23
13612;BME280;6877;51.436;6.774;2022-09-17T06:36:21;101059.91;;;9.20;93.28
13612;BME280;6877;51.436;6.774;2022-09-17T06:38:47;101061.66;;;9.24;93.42
13612;BME280;6877;51.436;6.774;2022-09-17T06:41:19;101058.91;;;9.40;93.43
13612;BME280;6877;51.436;6.774;2022-09-17T06:43:45;101067.41;;;9.62;92.15
13612;BME280;6877;51.436;6.774;2022-09-17T06:46:17;101068.94;;;9.83;91.38
13612;BME280;6877;51.436;6.774;2022-09-17T06:48:48;101065.28;;;9.97;89.74
13612;BME280;6877;51.436;6.774;2022-09-17T06:51:22;101061.50;;;10.28;89.05
13612;BME280;6877;51.436;6.774;2022-09-17T06:53:49;101063.16;;;10.35;88.35
13612;BME280;6877;51.436;6.774;2022-09-17T06:56:20;101064.09;;;10.29;88.19
13612;BME280;6877;51.436;6.774;2022-09-17T06:58:52;101055.41;;;10.23;87.88
13612;BME280;6877;51.436;6.774;2022-09-17T07:01:24;101059.91;;;10.11;87.26
13612;BME280;6877;51.436;6.774;2022-09-17T07:03:55;101065.06;;;10.19;87.63
13612;BME280;6877;51.436;6.774;2022-09-17T07:06:27;101060.66;;;10.21;87.86
13612;BME280;6877;51.436;6.774;2022-09-17T07:08:58;101062.28;;;10.34;87.01
13612;BME280;6877;51.436;6.774;2022-09-17T07:11:30;101068.34;;;10.38;85.98
13612;BME280;6877;51.436;6.774;2022-09-17T07:14:01;101068.38;;;10.35;86.25
13612;BME280;6877;51.436;6.774;2022-09-17T07:16:34;101058.78;;;10.35;86.30
13612;BME280;6877;51.436;6.774;2022-09-17T07:19:06;101069.97;;;10.47;86.17
13612;BME280;6877;51.436;6.774;2022-09-17T07:21:33;101069.78;;;10.59;85.08
13612;BME280;6877;51.436;6.774;2022-09-17T07:24:00;101068.03;;;10.62;84.62
13612;BME280;6877;51.436;6.774;2022-09-17T07:26:31;101063.63;;;10.66;84.25
13612;BME280;6877;51.436;6.774;2022-09-17T07:28:57;101052.13;;;10.76;83.63
13612;BME280;6877;51.436;6.774;2022-09-17T07:31:29;101057.00;;;11.01;82.66
13612;BME280;6877;51.436;6.774;2022-09-17T07:34:01;101057.56;;;11.18;82.16
13612;BME280;6877;51.436;6.774;2022-09-17T07:36:33;101044.97;;;11.42;81.21
13612;BME280;6877;51.436;6.774;2022-09-17T07:39:04;101055.63;;;11.79;79.03
13612;BME280;6877;51.436;6.774;2022-09-17T07:41:36;101054.78;;;11.80;76.98
13612;BME280;6877;51.436;6.774;2022-09-17T07:44:07;101050.44;;;11.77;77.97
13612;BME280;6877;51.436;6.774;2022-09-17T07:46:39;101052.75;;;11.94;75.90
13612;BME280;6877;51.436;6.774;2022-09-17T07:49:11;101052.84;;;12.35;74.73
13612;BME280;6877;51.436;6.774;2022-09-17T07:51:42;101051.94;;;13.13;73.56
13612;BME280;6877;51.436;6.774;2022-09-17T07:54:14;101045.25;;;14.92;67.41
13612;BME280;6877;51.436;6.774;2022-09-17T07:56:45;101046.19;;;17.30;58.82
13612;BME280;6877;51.436;6.774;2022-09-17T07:59:12;101053.69;;;19.16;52.51
13612;BME280;6877;51.436;6.774;2022-09-17T08:01:45;101051.09;;;18.40;55.22
13612;BME280;6877;51.436;6.774;2022-09-17T08:04:17;101054.59;;;19.86;50.19
13612;BME280;6877;51.436;6.774;2022-09-17T08:06:43;101054.47;;;21.63;45.93
13612;BME280;6877;51.436;6.774;2022-09-17T08:09:18;101057.44;;;23.93;41.40
13612;BME280;6877;51.436;6.774;2022-09-17T08:11:50;101056.88;;;24.51;38.51
13612;BME280;6877;51.436;6.774;2022-09-17T08:14:21;101066.53;;;25.15;38.13
13612;BME280;6877;51.436;6.774;2022-09-17T08:16:52;101055.97;;;26.18;34.39
13612;BME280;6877;51.436;6.774;2022-09-17T08:19:24;101055.31;;;27.25;33.79
13612;BME280;6877;51.436;6.774;2022-09-17T08:21:55;101055.56;;;28.36;30.45
13612;BME280;6877;51.436;6.774;2022-09-17T08:24:27;101061.63;;;28.59;30.24
13612;BME280;6877;51.436;6.774;2022-09-17T08:26:58;101062.66;;;27.44;30.44
13612;BME280;6877;51.436;6.774;2022-09-17T08:29:29;101055.25;;;26.49;31.42
13612;BME280;6877;51.436;6.774;2022-09-17T08:32:01;101048.25;;;27.66;29.51
13612;BME280;6877;51.436;6.774;2022-09-17T08:34:33;101055.22;;;27.04;29.42
13612;BME280;6877;51.436;6.774;2022-09-17T08:37:04;101052.69;;;24.97;32.63
13612;BME280;6877;51.436;6.774;2022-09-17T08:39:35;101050.91;;;23.58;34.86
13612;BME280;6877;51.436;6.774;2022-09-17T08:42:44;101047.34;;;21.78;37.90
13612;BME280;6877;51.436;6.774;2022-09-17T08:45:17;101048.56;;;23.79;34.19
13612;BME280;6877;51.436;6.774;2022-09-17T08:47:54;101048.78;;;24.77;32.19
13612;BME280;6877;51.436;6.774;2022-09-17T08:50:34;101052.75;;;24.22;32.66
13612;BME280;6877;51.436;6.774;2022-09-17T08:53:25;101060.25;;;25.27;31.36
13612;BME280;6877;51.436;6.774;2022-09-17T08:56:22;101041.56;;;23.64;33.78
13612;BME280;6877;51.436;6.774;2022-09-17T08:59:30;101052.19;;;24.79;31.42
13612;BME280;6877;51.436;6.774;2022-09-17T09:08:02;101046.91;;;21.56;36.37
13612;BME280;6877;51.436;6.774;2022-09-17T09:10:52;101047.78;;;19.63;40.62
13612;BME280;6877;51.436;6.774;2022-09-17T09:13:26;101055.78;;;18.92;41.57
13612;BME280;6877;51.436;6.774;2022-09-17T09:16:04;101047.25;;;19.56;41.08
13612;BME280;6877;51.436;6.774;2022-09-17T09:18:39;101056.50;;;22.03;36.13
13612;BME280;6877;51.436;6.774;2022-09-17T09:24:08;101046.91;;;21.56;37.56
13612;BME280;6877;51.436;6.774;2022-09-17T09:26:48;101047.94;;;21.39;37.42
13612;BME280;6877;51.436;6.774;2022-09-17T09:35:08;101057.91;;;17.88;44.06
13612;BME280;6877;51.436;6.774;2022-09-17T09:40:40;101055.03;;;18.69;43.50
13612;BME280;6877;51.436;6.774;2022-09-17T09:43:44;101052.88;;;19.50;41.57
13612;BME280;6877;51.436;6.774;2022-09-17T09:51:38;101057.28;;;16.51;47.39
13612;BME280;6877;51.436;6.774;2022-09-17T09:57:11;101047.97;;;17.93;45.56
13612;BME280;6877;51.436;6.774;2022-09-17T09:59:43;101044.91;;;20.02;39.09
13612;BME280;6877;51.436;6.774;2022-09-17T10:02:14;101042.72;;;19.76;41.10
13612;BME280;6877;51.436;6.774;2022-09-17T10:04:46;101048.38;;;18.04;45.99
13612;BME280;6877;51.436;6.774;2022-09-17T10:07:18;101057.81;;;16.84;54.21
13612;BME280;6877;51.436;6.774;2022-09-17T10:09:45;101043.28;;;15.25;58.66
13612;BME280;6877;51.436;6.774;2022-09-17T10:12:17;101035.41;;;14.69;63.04
13612;BME280;6877;51.436;6.774;2022-09-17T10:15:25;101041.94;;;14.57;64.61
13612;BME280;6877;51.436;6.774;2022-09-17T10:21:02;101031.56;;;13.57;67.80
13612;BME280;6877;51.436;6.774;2022-09-17T10:23:32;101033.63;;;14.40;69.20
13612;BME280;6877;51.436;6.774;2022-09-17T10:26:02;101017.72;;;17.37;57.38
13612;BME280;6877;51.436;6.774;2022-09-17T10:28:30;101034.28;;;19.15;52.26
13612;BME280;6877;51.436;6.774;2022-09-17T10:31:05;101030.31;;;18.12;53.47
13612;BME280;6877;51.436;6.774;2022-09-17T10:44:35;101032.56;;;20.82;46.96
13612;BME280;6877;51.436;6.774;2022-09-17T10:47:20;101024.09;;;23.20;42.46
13612;BME280;6877;51.436;6.774;2022-09-17T10:52:32;101020.09;;;24.79;36.07
13612;BME280;6877;51.436;6.774;2022-09-17T11:01:21;101008.38;;;25.63;32.94
13612;BME280;6877;51.436;6.774;2022-09-17T11:14:50;101045.84;;;17.60;46.98
13612;BME280;6877;51.436;6.774;2022-09-17T11:37:34;101092.00;;;11.51;78.20
13612;BME280;6877;51.436;6.774;2022-09-17T11:42:55;101079.75;;;11.50;78.99
13612;BME280;6877;51.436;6.774;2022-09-17T11:45:46;101063.94;;;11.56;76.76
13612;BME280;6877;51.436;6.774;2022-09-17T11:48:23;101072.47;;;11.67;76.37
13612;BME280;6877;51.436;6.774;2022-09-17T11:51:13;101074.19;;;11.68;73.77
13612;BME280;6877;51.436;6.774;2022-09-17T11:53:53;101067.19;;;11.70;75.13
13612;BME280;6877;51.436;6.774;2022-09-17T11:56:38;101069.00;;;11.67;75.11
13612;BME280;6877;51.436;6.774;2022-09-17T11:59:13;101076.63;;;11.79;74.87
13612;BME280;6877;51.436;6.774;2022-09-17T12:04:42;101070.75;;;12.14;73.27
13612;BME280;6877;51.436;6.774;2022-09-17T12:07:20;101076.00;;;12.14;74.24
13612;BME280;6877;51.436;6.774;2022-09-17T12:10:02;101084.47;;;11.80;76.10
13612;BME280;6877;51.436;6.774;2022-09-17T12:12:37;101082.72;;;11.28;78.57
13612;BME280;6877;51.436;6.774;2022-09-17T12:15:20;101083.38;;;10.87;81.49
13612;BME280;6877;51.436;6.774;2022-09-17T12:18:31;101071.84;;;10.34;84.56
13612;BME280;6877;51.436;6.774;2022-09-17T12:21:07;101046.94;;;10.04;86.06
13612;BME280;6877;51.436;6.774;2022-09-17T12:23:49;101053.97;;;9.95;87.79
13612;BME280;6877;51.436;6.774;2022-09-17T12:59:04;101022.75;;;12.88;75.54
13612;BME280;6877;51.436;6.774;2022-09-17T13:15:40;100993.50;;;14.03;71.82
13612;BME280;6877;51.436;6.774;2022-09-17T13:18:21;100989.69;;;14.12;70.86
13612;BME280;6877;51.436;6.774;2022-09-17T13:23:47;100992.56;;;14.34;68.60
13612;BME280;6877;51.436;6.774;2022-09-17T13:26:31;100989.72;;;14.42;67.02
13612;BME280;6877;51.436;6.774;2022-09-17T13:29:04;100979.31;;;14.67;66.13
13612;BME280;6877;51.436;6.774;2022-09-17T13:36:51;101006.38;;;14.42;65.31
13612;BME280;6877;51.436;6.774;2022-09-17T13:39:39;101092.59;;;14.03;67.67
13612;BME280;6877;51.436;6.774;2022-09-17T13:42:16;101072.63;;;11.58;77.50
13612;BME280;6877;51.436;6.774;2022-09-17T13:45:09;101063.38;;;10.12;84.41
13612;BME280;6877;51.436;6.774;2022-09-17T13:48:09;101041.34;;;9.54;88.92
13612;BME280;6877;51.436;6.774;2022-09-17T13:50:43;101033.72;;;9.31;91.87
13612;BME280;6877;51.436;6.774;2022-09-17T13:55:47;101021.41;;;9.42;90.63
13612;BME280;6877;51.436;6.774;2022-09-17T14:00:59;101023.84;;;9.61;90.86
13612;BME280;6877;51.436;6.774;2022-09-17T14:08:58;101032.81;;;10.17;89.38
13612;BME280;6877;51.436;6.774;2022-09-17T14:11:36;101032.63;;;10.35;88.68
13612;BME280;6877;51.436;6.774;2022-09-17T14:22:24;101032.03;;;10.78;87.42
13612;BME280;6877;51.436;6.774;2022-09-17T14:24:57;101030.13;;;10.88;88.71
13612;BME280;6877;51.436;6.774;2022-09-17T14:35:40;101012.53;;;11.47;85.92
13612;BME280;6877;51.436;6.774;2022-09-17T14:43:54;101017.94;;;11.88;82.92
13612;BME280;6877;51.436;6.774;2022-09-17T14:46:28;101015.97;;;11.97;83.40
13612;BME280;6877;51.436;6.774;2022-09-17T14:51:55;101014.44;;;12.31;81.68
13612;BME280;6877;51.436;6.774;2022-09-17T14:54:28;101012.41;;;12.43;81.37
13612;BME280;6877;51.436;6.774;2022-09-17T14:59:49;101005.75;;;12.67;77.93
13612;BME280;6877;51.436;6.774;2022-09-17T15:02:40;101005.56;;;12.75;75.61
13612;BME280;6877;51.436;6.774;2022-09-17T15:08:18;101005.28;;;12.87;72.76
13612;BME280;6877;51.436;6.774;2022-09-17T15:13:34;101004.44;;;12.85;67.98
13612;BME280;6877;51.436;6.774;2022-09-17T15:16:16;101010.03;;;12.70;69.74
13612;BME280;6877;51.436;6.774;2022-09-17T15:18:57;101004.84;;;12.68;67.77
13612;BME280;6877;51.436;6.774;2022-09-17T15:21:38;101022.44;;;12.63;69.74
13612;BME280;6877;51.436;6.774;2022-09-17T15:24:47;101010.81;;;12.75;69.16
13612;BME280;6877;51.436;6.774;2022-09-17T15:27:18;101028.28;;;12.76;69.81
13612;BME280;6877;51.436;6.774;2022-09-17T15:29:56;101016.09;;;12.73;71.08
13612;BME280;6877;51.436;6.774;2022-09-17T15:32:31;101019.19;;;12.91;70.79
13612;BME280;6877;51.436;6.774;2022-09-17T15:37:56;101013.06;;;13.28;68.36
13612;BME280;6877;51.436;6.774;2022-09-17T15:40:34;101009.06;;;13.47;67.84
13612;BME280;6877;51.436;6.774;2022-09-17T15:45:56;101019.69;;;13.42;66.43
13612;BME280;6877;51.436;6.774;2022-09-17T15:51:20;100999.94;;;13.60;64.23
13612;BME280;6877;51.436;6.774;2022-09-17T15:53:56;101016.41;;;13.67;62.02
13612;BME280;6877;51.436;6.774;2022-09-17T15:56:35;101015.63;;;13.63;62.38
13612;BME280;6877;51.436;6.774;2022-09-17T16:04:09;101082.88;;;13.02;63.99
13612;BME280;6877;51.436;6.774;2022-09-17T16:12:12;101063.69;;;12.18;71.09
13612;BME280;6877;51.436;6.774;2022-09-17T16:14:47;101062.28;;;12.00;71.60
13612;BME280;6877;51.436;6.774;2022-09-17T16:22:48;101060.13;;;12.20;71.81
13612;BME280;6877;51.436;6.774;2022-09-17T16:25:26;101059.78;;;12.36;68.92
13612;BME280;6877;51.436;6.774;2022-09-17T16:27:59;101057.03;;;12.43;67.86
13612;BME280;6877;51.436;6.774;2022-09-17T16:30:27;101056.31;;;12.35;68.06
13612;BME280;6877;51.436;6.774;2022-09-17T16:32:54;101058.22;;;12.28;67.92
13612;BME280;6877;51.436;6.774;2022-09-17T16:35:25;101066.25;;;12.19;66.88
13612;BME280;6877;51.436;6.774;2022-09-17T16:37:57;101059.53;;;12.08;66.80
13612;BME280;6877;51.436;6.774;2022-09-17T16:40:24;101054.28;;;12.06;66.33
13612;BME280;6877;51.436;6.774;2022-09-17T16:43:02;101064.66;;;12.12;66.80
13612;BME280;6877;51.436;6.774;2022-09-17T16:45:34;101062.03;;;12.14;66.78
13612;BME280;6877;51.436;6.774;2022-09-17T16:48:00;101068.13;;;12.14;66.88
13612;BME280;6877;51.436;6.774;2022-09-17T16:50:32;101063.56;;;12.22;65.45
13612;BME280;6877;51.436;6.774;2022-09-17T16:53:04;101067.09;;;12.21;65.04
13612;BME280;6877;51.436;6.774;2022-09-17T16:55:37;101067.22;;;12.15;65.87
13612;BME280;6877;51.436;6.774;2022-09-17T16:58:08;101070.13;;;12.01;67.01
13612;BME280;6877;51.436;6.774;2022-09-17T17:00:43;101066.63;;;12.01;66.14
13612;BME280;6877;51.436;6.774;2022-09-17T17:03:15;101073.63;;;12.02;65.95
13612;BME280;6877;51.436;6.774;2022-09-17T17:05:47;101072.00;;;11.95;65.97
13612;BME280;6877;51.436;6.774;2022-09-17T17:08:18;101071.06;;;11.99;65.75
13612;BME280;6877;51.436;6.774;2022-09-17T17:10:50;101070.88;;;12.06;65.33
13612;BME280;6877;51.436;6.774;2022-09-17T17:13:22;101071.69;;;12.10;65.20
13612;BME280;6877;51.436;6.774;2022-09-17T17:15:53;101069.91;;;12.14;64.79
13612;BME280;6877;51.436;6.774;2022-09-17T17:18:26;101072.53;;;12.14;64.99
13612;BME280;6877;51.436;6.774;2022-09-17T17:21:06;101078.75;;;12.08;65.70
13612;BME280;6877;51.436;6.774;2022-09-17T17:23:38;101071.75;;;12.07;65.67
13612;BME280;6877;51.436;6.774;2022-09-17T17:26:09;101077.94;;;12.04;65.76
13612;BME280;6877;51.436;6.774;2022-09-17T17:28:41;101077.00;;;12.07;65.19
13612;BME280;6877;51.436;6.774;2022-09-17T17:31:13;101073.72;;;11.96;66.05
13612;BME280;6877;51.436;6.774;2022-09-17T17:33:45;101078.19;;;11.91;66.36
13612;BME280;6877;51.436;6.774;2022-09-17T17:36:16;101073.13;;;11.80;66.87
13612;BME280;6877;51.436;6.774;2022-09-17T17:38:48;101073.00;;;11.88;66.19
13612;BME280;6877;51.436;6.774;2022-09-17T17:41:19;101080.63;;;12.00;65.82
13612;BME280;6877;51.436;6.774;2022-09-17T17:43:54;101083.31;;;11.97;65.13
13612;BME280;6877;51.436;6.774;2022-09-17T17:46:21;101082.56;;;11.92;65.61
13612;BME280;6877;51.436;6.774;2022-09-17T17:48:53;101076.53;;;11.85;65.88
13612;BME280;6877;51.436;6.774;2022-09-17T17:51:25;101086.22;;;11.80;66.00
13612;BME280;6877;51.436;6.774;2022-09-17T17:53:52;101084.63;;;11.71;66.80
13612;BME280;6877;51.436;6.774;2022-09-17T17:56:23;101081.22;;;11.66;66.98
13612;BME280;6877;51.436;6.774;2022-09-17T17:58:56;101081.09;;;11.72;66.51